createdAt,value
2018-11-03T00:01:16.708Z,6.90
2018-11-03T00:03:45.529Z,6.33
2018-11-03T00:06:14.353Z,6.07
2018-11-03T00:08:43.243Z,7.00
2018-11-03T00:11:12.016Z,7.07
2018-11-03T00:13:40.898Z,6.97
2018-11-03T00:16:09.782Z,6.90
2018-11-03T00:18:38.577Z,7.67
2018-11-03T00:21:07.389Z,9.13
2018-11-03T00:23:36.184Z,7.97
2018-11-03T00:26:05.062Z,7.20
2018-11-03T00:28:33.871Z,7.33
2018-11-03T00:31:02.649Z,8.37
2018-11-03T00:33:31.484Z,8.30
2018-11-03T00:36:00.271Z,9.17
2018-11-03T00:38:29.061Z,8.97
2018-11-03T00:40:57.891Z,9.53
2018-11-03T00:43:26.666Z,8.63
2018-11-03T00:45:55.420Z,9.27
2018-11-03T00:48:27.741Z,9.93
2018-11-03T00:50:56.671Z,8.77
2018-11-03T00:53:25.638Z,9.77
2018-11-03T00:55:54.648Z,9.20
2018-11-03T00:58:23.429Z,10.33
2018-11-03T01:00:52.319Z,9.50
2018-11-03T01:03:23.146Z,10.07
2018-11-03T01:05:52.658Z,10.57
2018-11-03T01:08:21.449Z,10.20
2018-11-03T01:13:47.564Z,10.53
2018-11-03T01:16:16.369Z,10.37
2018-11-03T01:18:45.221Z,10.70
2018-11-03T01:21:14.046Z,10.60
2018-11-03T01:23:42.885Z,9.90
2018-11-03T01:26:11.682Z,10.00
2018-11-03T01:28:40.568Z,9.57
2018-11-03T01:31:09.487Z,10.13
2018-11-03T01:33:38.269Z,9.57
2018-11-03T01:36:07.154Z,10.17
2018-11-03T01:38:35.979Z,10.87
2018-11-03T01:41:04.785Z,10.20
2018-11-03T01:43:33.600Z,10.43
2018-11-03T01:46:02.501Z,11.10
2018-11-03T01:48:31.289Z,10.10
2018-11-03T01:51:03.698Z,11.73
2018-11-03T01:53:32.870Z,11.23
2018-11-03T01:56:01.657Z,11.20
2018-11-03T01:58:30.463Z,11.30
2018-11-03T02:00:59.355Z,12.30
2018-11-03T02:03:28.157Z,12.43
2018-11-03T02:05:57.014Z,11.77
2018-11-03T02:08:25.846Z,11.73
2018-11-03T02:10:54.650Z,13.33
2018-11-03T02:13:23.744Z,10.93
2018-11-03T02:15:56.171Z,12.43
2018-11-03T02:18:25.261Z,11.90
2018-11-03T02:20:54.049Z,12.30
2018-11-03T02:23:22.857Z,12.63
2018-11-03T02:25:51.707Z,14.33
2018-11-03T02:28:20.654Z,12.67
2018-11-03T02:30:49.553Z,13.10
2018-11-03T02:33:18.478Z,13.20
2018-11-03T02:35:47.305Z,11.97
2018-11-03T02:38:16.178Z,12.67
2018-11-03T02:40:44.976Z,12.63
2018-11-03T02:43:13.796Z,12.20
2018-11-03T02:45:42.825Z,12.10
2018-11-03T02:48:11.631Z,12.53
2018-11-03T02:50:40.535Z,13.65
2018-11-03T02:53:09.323Z,12.37
2018-11-03T02:55:38.211Z,12.00
2018-11-03T02:58:07.948Z,13.33
2018-11-03T03:00:36.889Z,12.57
2018-11-03T03:03:05.736Z,13.17
2018-11-03T03:05:34.543Z,13.60
2018-11-03T03:08:03.353Z,14.80
2018-11-03T03:10:32.280Z,13.10
2018-11-03T03:13:01.109Z,14.17
2018-11-03T03:15:30.635Z,14.43
2018-11-03T03:17:59.503Z,15.97
2018-11-03T03:20:28.290Z,15.10
2018-11-03T03:22:57.138Z,15.38
2018-11-03T03:25:25.934Z,15.17
2018-11-03T03:27:54.770Z,15.33
2018-11-03T03:30:23.617Z,14.58
2018-11-03T03:32:52.587Z,14.67
2018-11-03T03:35:21.406Z,14.77
2018-11-03T03:37:50.368Z,15.30
2018-11-03T03:40:19.184Z,15.45
2018-11-03T03:42:51.645Z,15.43
2018-11-03T03:45:22.806Z,14.85
2018-11-03T03:47:51.778Z,16.50
2018-11-03T03:50:20.683Z,17.67
2018-11-03T03:52:49.509Z,17.43
2018-11-03T03:55:18.312Z,18.40
2018-11-03T03:57:47.187Z,16.87
2018-11-03T04:00:16.133Z,17.65
2018-11-03T04:02:45.032Z,16.90
2018-11-03T04:05:13.955Z,16.48
2018-11-03T04:07:43.417Z,17.67
2018-11-03T04:10:12.421Z,16.97
2018-11-03T04:12:41.294Z,17.15
2018-11-03T04:15:10.089Z,16.30
2018-11-03T04:17:39.139Z,16.97
2018-11-03T04:20:08.477Z,16.82
2018-11-03T04:22:37.342Z,15.88
2018-11-03T04:25:06.420Z,16.62
2018-11-03T04:27:35.269Z,16.30
2018-11-03T04:30:05.801Z,16.00
2018-11-03T04:32:34.659Z,16.60
2018-11-03T04:35:03.498Z,17.02
2018-11-03T04:37:32.362Z,16.80
2018-11-03T04:40:01.415Z,15.75
2018-11-03T04:42:30.333Z,16.07
2018-11-03T04:45:01.347Z,17.42
2018-11-03T04:47:30.214Z,16.77
2018-11-03T04:49:59.068Z,16.50
2018-11-03T04:52:27.858Z,15.95
2018-11-03T04:54:56.759Z,15.53
2018-11-03T04:57:25.725Z,15.65
2018-11-03T04:59:54.655Z,16.42
2018-11-03T05:02:23.513Z,16.27
2018-11-03T05:04:52.371Z,15.90
2018-11-03T05:07:21.206Z,16.10
2018-11-03T05:09:50.120Z,15.70
2018-11-03T05:12:19.241Z,17.17
2018-11-03T05:14:48.085Z,17.32
2018-11-03T05:17:16.936Z,16.77
2018-11-03T05:19:45.768Z,15.95
2018-11-03T05:22:14.566Z,17.90
2018-11-03T05:24:43.429Z,16.62
2018-11-03T05:27:12.277Z,17.17
2018-11-03T05:29:41.294Z,18.05
2018-11-03T05:32:10.101Z,16.93
2018-11-03T05:34:38.981Z,16.32
2018-11-03T05:37:07.937Z,18.42
2018-11-03T05:39:36.761Z,16.80
2018-11-03T05:42:06.159Z,17.95
2018-11-03T05:44:35.493Z,16.57
2018-11-03T05:47:04.321Z,17.27
2018-11-03T05:49:33.167Z,17.10
2018-11-03T05:52:10.461Z,18.33
2018-11-03T05:54:39.426Z,17.17
2018-11-03T05:57:08.597Z,16.20
2018-11-03T05:59:37.442Z,18.42
2018-11-03T06:02:06.323Z,18.12
2018-11-03T06:04:35.197Z,18.12
2018-11-03T06:07:04.244Z,17.73
2018-11-03T06:09:33.136Z,18.48
2018-11-03T06:12:01.992Z,16.95
2018-11-03T06:14:30.794Z,18.67
2018-11-03T06:16:59.612Z,17.25
2018-11-03T06:19:28.433Z,18.98
2018-11-03T06:21:57.419Z,18.53
2018-11-03T06:24:26.654Z,17.98
2018-11-03T06:26:55.612Z,17.80
2018-11-03T06:29:24.471Z,17.92
2018-11-03T06:31:53.329Z,17.00
2018-11-03T06:34:22.806Z,17.42
2018-11-03T06:36:51.676Z,16.27
2018-11-03T06:39:20.718Z,17.67
2018-11-03T06:41:49.665Z,17.87
2018-11-03T06:44:22.565Z,17.67
2018-11-03T06:46:51.652Z,17.95
2018-11-03T06:49:23.026Z,18.20
2018-11-03T06:51:53.759Z,16.67
2018-11-03T06:54:23.467Z,17.30
2018-11-03T06:56:52.715Z,19.10
2018-11-03T06:59:22.404Z,19.37
2018-11-03T07:01:51.392Z,18.07
2018-11-03T07:04:20.378Z,19.40
2018-11-03T07:06:49.257Z,19.45
2018-11-03T07:09:18.273Z,19.25
2018-11-03T07:11:47.237Z,18.27
2018-11-03T07:14:16.067Z,20.70
2018-11-03T07:16:44.913Z,18.45
2018-11-03T07:19:13.851Z,19.02
2018-11-03T07:21:42.870Z,19.20
2018-11-03T07:24:11.781Z,19.83
2018-11-03T07:26:41.612Z,19.25
2018-11-03T07:29:10.455Z,20.02
2018-11-03T07:31:39.388Z,19.55
2018-11-03T07:34:08.254Z,19.98
2018-11-03T07:36:37.731Z,20.48
2018-11-03T07:39:07.790Z,19.57
2018-11-03T07:41:36.832Z,20.25
2018-11-03T07:44:06.391Z,20.45
2018-11-03T07:46:35.663Z,20.70
2018-11-03T07:49:04.667Z,20.70
2018-11-03T07:51:33.434Z,21.07
2018-11-03T07:54:02.286Z,21.03
2018-11-03T07:56:31.210Z,20.70
2018-11-03T07:59:00.045Z,20.17
2018-11-03T08:01:28.864Z,19.30
2018-11-03T08:03:57.677Z,19.77
2018-11-03T08:06:26.518Z,18.97
2018-11-03T08:08:55.347Z,19.13
2018-11-03T08:11:24.177Z,20.63
2018-11-03T08:13:53.006Z,20.17
2018-11-03T08:16:22.958Z,20.47
2018-11-03T08:18:51.758Z,20.03
2018-11-03T08:21:20.883Z,19.97
2018-11-03T08:23:49.775Z,19.90
2018-11-03T08:26:18.546Z,19.30
2018-11-03T08:28:47.512Z,20.03
2018-11-03T08:31:16.517Z,19.37
2018-11-03T08:33:45.314Z,18.00
2018-11-03T08:36:14.124Z,18.10
2018-11-03T08:38:42.993Z,17.43
2018-11-03T08:41:11.791Z,18.53
2018-11-03T08:43:40.617Z,18.67
2018-11-03T08:46:10.248Z,18.47
2018-11-03T08:48:39.308Z,19.00
2018-11-03T08:51:08.261Z,19.73
2018-11-03T08:53:37.046Z,18.47
2018-11-03T08:56:05.909Z,19.97
2018-11-03T08:58:34.953Z,21.13
2018-11-03T09:01:05.298Z,17.57
2018-11-03T09:03:34.189Z,12.77
2018-11-03T09:06:03.003Z,11.13
2018-11-03T09:08:31.781Z,10.57
2018-11-03T09:11:00.593Z,10.67
2018-11-03T09:13:29.417Z,10.70
2018-11-03T09:15:58.440Z,10.83
2018-11-03T09:18:28.220Z,12.33
2018-11-03T09:20:57.290Z,11.90
2018-11-03T09:23:26.112Z,12.03
2018-11-03T09:25:55.025Z,11.33
2018-11-03T09:28:23.800Z,11.00
2018-11-03T09:30:52.636Z,10.80
2018-11-03T09:33:21.425Z,10.60
2018-11-03T09:35:50.278Z,10.70
2018-11-03T09:38:19.092Z,9.93
2018-11-03T09:40:47.890Z,9.63
2018-11-03T09:43:16.734Z,9.23
2018-11-03T09:45:45.578Z,10.00
2018-11-03T09:48:14.397Z,10.27
2018-11-03T09:50:43.512Z,9.67
2018-11-03T09:53:12.281Z,8.93
2018-11-03T09:55:41.150Z,8.33
2018-11-03T09:58:10.085Z,7.57
2018-11-03T10:00:38.955Z,7.73
2018-11-03T10:03:07.776Z,8.50
2018-11-03T10:05:36.623Z,8.10
2018-11-03T10:08:05.886Z,6.93
2018-11-03T10:10:34.719Z,7.13
2018-11-03T10:13:03.563Z,6.87
2018-11-03T10:15:32.374Z,7.00
2018-11-03T10:18:01.395Z,7.67
2018-11-03T10:20:30.221Z,7.20
2018-11-03T10:22:59.092Z,6.43
2018-11-03T10:25:31.071Z,7.33
2018-11-03T10:28:00.043Z,7.37
2018-11-03T10:30:28.847Z,5.57
2018-11-03T10:32:57.670Z,6.73
2018-11-03T10:35:26.503Z,8.20
2018-11-03T10:37:55.402Z,6.43
2018-11-03T10:40:24.223Z,6.27
2018-11-03T10:42:53.017Z,6.53
2018-11-03T10:45:21.853Z,4.97
2018-11-03T10:47:50.689Z,5.27
2018-11-03T10:50:19.747Z,5.10
2018-11-03T10:52:48.786Z,4.60
2018-11-03T10:55:18.851Z,4.10
2018-11-03T10:57:47.701Z,4.10
2018-11-03T11:00:23.137Z,3.93
2018-11-03T11:02:57.950Z,4.47
2018-11-03T11:05:32.714Z,4.10
2018-11-03T11:08:09.659Z,4.10
2018-11-03T11:10:44.152Z,3.87
2018-11-03T11:13:20.974Z,3.70
2018-11-03T11:15:51.225Z,4.50
2018-11-03T11:18:20.001Z,4.07
2018-11-03T11:20:49.019Z,4.93
2018-11-03T11:23:17.889Z,4.50
2018-11-03T11:25:46.885Z,3.80
2018-11-03T11:28:15.821Z,3.93
2018-11-03T11:30:45.233Z,3.40
2018-11-03T11:33:15.432Z,4.37
2018-11-03T11:35:44.203Z,3.90
2018-11-03T11:38:13.630Z,3.30
2018-11-03T11:40:42.847Z,3.70
2018-11-03T11:43:12.714Z,3.33
2018-11-03T11:45:41.524Z,3.60
2018-11-03T11:48:10.641Z,3.27
2018-11-03T11:50:42.880Z,3.10
2018-11-03T11:53:12.852Z,3.27
2018-11-03T11:55:41.760Z,3.27
2018-11-03T11:58:10.587Z,3.17
2018-11-03T12:00:39.832Z,2.90
2018-11-03T12:03:08.590Z,3.03
2018-11-03T12:05:37.735Z,3.00
2018-11-03T12:08:06.712Z,2.50
2018-11-03T12:10:35.642Z,2.90
2018-11-03T12:13:04.769Z,2.47
2018-11-03T12:15:33.774Z,2.60
2018-11-03T12:18:02.976Z,2.50
2018-11-03T12:20:31.957Z,2.70
2018-11-03T12:23:00.865Z,2.80
2018-11-03T12:25:29.804Z,2.53
2018-11-03T12:27:58.689Z,2.83
2018-11-03T12:30:27.534Z,2.50
2018-11-03T12:32:57.363Z,2.60
2018-11-03T12:35:26.628Z,2.57
2018-11-03T12:37:55.498Z,2.13
2018-11-03T12:40:24.371Z,2.20
2018-11-03T12:42:53.217Z,2.20
2018-11-03T12:45:21.999Z,2.53
2018-11-03T12:47:50.835Z,2.30
2018-11-03T12:50:19.661Z,2.17
2018-11-03T12:52:48.522Z,2.40
2018-11-03T12:55:17.512Z,2.60
2018-11-03T12:57:46.409Z,2.30
2018-11-03T13:00:16.120Z,2.10
2018-11-03T13:02:45.962Z,2.80
2018-11-03T13:05:15.035Z,2.83
2018-11-03T13:07:45.017Z,2.77
2018-11-03T13:10:13.822Z,3.60
2018-11-03T13:12:43.058Z,3.70
2018-11-03T13:15:13.051Z,3.53
2018-11-03T13:17:41.900Z,4.80
2018-11-03T13:20:13.535Z,2.57
2018-11-03T13:22:43.991Z,3.40
2018-11-03T13:25:13.049Z,3.33
2018-11-03T13:27:42.787Z,3.40
2018-11-03T13:30:14.448Z,3.30
2018-11-03T13:32:44.854Z,3.30
2018-11-03T13:35:14.607Z,2.53
2018-11-03T13:37:43.438Z,2.50
2018-11-03T13:40:13.277Z,2.77
2018-11-03T13:42:42.457Z,2.77
2018-11-03T13:45:11.609Z,2.90
2018-11-03T13:47:40.758Z,2.67
2018-11-03T13:50:13.915Z,2.80
2018-11-03T13:52:44.460Z,3.13
2018-11-03T13:55:14.003Z,2.93
2018-11-03T13:57:43.916Z,3.03
2018-11-03T14:00:14.185Z,2.57
2018-11-03T14:02:43.904Z,3.77
2018-11-03T14:05:12.723Z,2.40
2018-11-03T14:07:41.602Z,2.67
2018-11-03T14:10:13.811Z,2.80
2018-11-03T14:12:43.620Z,3.20
2018-11-03T14:15:14.741Z,2.67
2018-11-03T14:17:43.686Z,2.77
2018-11-03T14:20:13.542Z,2.63
2018-11-03T14:22:43.549Z,2.83
2018-11-03T14:25:13.669Z,2.50
2018-11-03T14:27:44.205Z,2.47
2018-11-03T14:30:13.513Z,2.53
2018-11-03T14:32:42.495Z,2.53
2018-11-03T14:35:12.002Z,2.30
2018-11-03T14:37:41.294Z,2.27
2018-11-03T14:40:12.409Z,2.30
2018-11-03T14:42:42.050Z,2.13
2018-11-03T14:45:11.862Z,2.43
2018-11-03T14:47:41.062Z,2.43
2018-11-03T14:50:10.049Z,2.17
2018-11-03T14:52:40.297Z,2.27
2018-11-03T14:55:10.102Z,2.80
2018-11-03T14:57:39.250Z,2.63
2018-11-03T15:00:11.553Z,2.60
2018-11-03T15:02:40.391Z,2.80
2018-11-03T15:05:10.607Z,2.10
2018-11-03T15:07:39.554Z,2.57
2018-11-03T15:10:09.599Z,3.63
2018-11-03T15:12:38.990Z,2.90
2018-11-03T15:15:09.346Z,3.03
2018-11-03T15:17:42.914Z,2.80
2018-11-03T15:20:12.289Z,3.00
2018-11-03T15:22:41.718Z,4.20
2018-11-03T15:25:11.201Z,5.13
2018-11-03T15:27:40.482Z,4.20
2018-11-03T15:30:10.737Z,3.67
2018-11-03T15:32:39.992Z,4.50
2018-11-03T15:35:09.581Z,3.97
2018-11-03T15:37:38.451Z,3.87
2018-11-03T15:40:09.051Z,4.07
2018-11-03T15:42:37.918Z,3.63
2018-11-03T15:45:08.928Z,5.20
2018-11-03T15:47:37.835Z,3.43
2018-11-03T15:50:06.834Z,4.30
2018-11-03T15:52:35.708Z,4.80
2018-11-03T15:55:05.281Z,5.30
2018-11-03T15:57:34.179Z,6.03
2018-11-03T16:00:03.294Z,12.03
2018-11-03T16:02:32.144Z,7.90
2018-11-03T16:05:01.012Z,7.63
2018-11-03T16:07:29.842Z,8.57
2018-11-03T16:10:00.568Z,9.67
2018-11-03T16:12:29.396Z,9.30
2018-11-03T16:14:58.256Z,11.53
2018-11-03T16:17:27.096Z,10.10
2018-11-03T16:19:55.913Z,13.10
2018-11-03T16:22:24.773Z,12.00
2018-11-03T16:25:00.014Z,11.97
2018-11-03T16:27:28.856Z,11.20
2018-11-03T16:29:58.208Z,11.77
2018-11-03T16:32:27.188Z,12.27
2018-11-03T16:34:55.925Z,12.43
2018-11-03T16:37:24.809Z,11.20
2018-11-03T16:39:53.677Z,9.13
2018-11-03T16:42:22.712Z,10.63
2018-11-03T16:44:54.397Z,10.10
2018-11-03T16:47:23.497Z,9.37
2018-11-03T16:49:52.277Z,10.23
2018-11-03T16:52:21.164Z,9.47
2018-11-03T16:54:49.962Z,9.13
2018-11-03T16:57:18.762Z,9.73
2018-11-03T16:59:48.141Z,10.13
2018-11-03T17:02:17.041Z,10.73
2018-11-03T17:04:45.889Z,10.47
2018-11-03T17:07:14.729Z,10.73
2018-11-03T17:09:43.622Z,11.00
2018-11-03T17:12:12.518Z,11.87
2018-11-03T17:14:41.301Z,12.57
2018-11-03T17:17:10.122Z,13.13
2018-11-03T17:19:38.971Z,12.33
2018-11-03T17:22:07.780Z,12.97
2018-11-03T17:24:36.661Z,13.03
2018-11-03T17:27:07.594Z,12.73
2018-11-03T17:29:36.562Z,12.53
2018-11-03T17:32:06.352Z,12.13
2018-11-03T17:34:36.017Z,11.67
2018-11-03T17:37:05.305Z,11.10
2018-11-03T17:39:34.138Z,10.90
2018-11-03T17:42:02.961Z,10.27
2018-11-03T17:44:31.782Z,9.43
2018-11-03T17:47:00.611Z,9.80
2018-11-03T17:49:29.434Z,11.73
2018-11-03T17:51:58.251Z,11.73
2018-11-03T17:54:27.149Z,12.93
2018-11-03T17:56:55.986Z,11.70
2018-11-03T17:59:24.911Z,11.07
2018-11-03T18:01:53.802Z,10.97
2018-11-03T18:04:23.022Z,9.20
2018-11-03T18:06:52.928Z,9.77
2018-11-03T18:09:28.400Z,10.23
2018-11-03T18:12:00.184Z,12.63
2018-11-03T18:14:29.145Z,12.03
2018-11-03T18:16:58.098Z,21.53
2018-11-03T18:19:27.054Z,17.17
2018-11-03T18:21:56.015Z,17.20
2018-11-03T18:24:25.498Z,19.73
2018-11-03T18:26:55.210Z,17.47
2018-11-03T18:29:24.094Z,14.17
2018-11-03T18:31:52.949Z,14.33
2018-11-03T18:34:21.781Z,14.13
2018-11-03T18:36:50.647Z,16.73
2018-11-03T18:39:19.500Z,15.83
2018-11-03T18:41:48.520Z,15.50
2018-11-03T18:44:17.171Z,14.77
2018-11-03T18:46:46.301Z,14.53
2018-11-03T18:49:15.055Z,13.97
2018-11-03T18:51:43.931Z,14.33
2018-11-03T18:54:12.682Z,14.67
2018-11-03T18:56:41.486Z,14.47
2018-11-03T18:59:10.307Z,16.70
2018-11-03T19:01:39.194Z,15.37
2018-11-03T19:04:08.058Z,15.50
2018-11-03T19:06:36.898Z,13.30
2018-11-03T19:09:06.896Z,15.53
2018-11-03T19:11:37.356Z,15.53
2018-11-03T19:14:06.282Z,14.40
2018-11-03T19:16:35.085Z,14.77
2018-11-03T19:19:03.967Z,14.20
2018-11-03T19:21:32.765Z,14.67
2018-11-03T19:24:02.069Z,14.50
2018-11-03T19:26:37.555Z,13.72
2018-11-03T19:29:06.851Z,13.37
2018-11-03T19:31:35.708Z,13.28
2018-11-03T19:34:04.655Z,13.43
2018-11-03T19:36:33.473Z,14.17
2018-11-03T19:39:02.312Z,14.70
2018-11-03T19:41:31.181Z,13.80
2018-11-03T19:44:00.007Z,13.07
2018-11-03T19:46:28.832Z,12.87
2018-11-03T19:48:57.800Z,13.10
2018-11-03T19:51:26.677Z,14.07
2018-11-03T19:53:55.578Z,14.27
2018-11-03T19:56:27.261Z,13.60
2018-11-03T19:58:56.069Z,12.93
2018-11-03T20:01:24.851Z,13.73
2018-11-03T20:03:53.749Z,13.93
2018-11-03T20:06:22.594Z,13.20
2018-11-03T20:08:51.501Z,12.67
2018-11-03T20:11:20.328Z,14.37
2018-11-03T20:13:49.171Z,12.87
2018-11-03T20:16:17.953Z,11.73
2018-11-03T20:18:46.775Z,11.40
2018-11-03T20:21:15.584Z,11.70
2018-11-03T20:23:44.382Z,10.57
2018-11-03T20:26:13.344Z,9.93
2018-11-03T20:28:43.650Z,11.87
2018-11-03T20:31:12.457Z,9.98
2018-11-03T20:33:41.326Z,12.50
2018-11-03T20:36:10.196Z,14.60
2018-11-03T20:38:41.927Z,14.30
2018-11-03T20:41:11.006Z,14.78
2018-11-03T20:43:39.801Z,14.73
2018-11-03T20:46:08.647Z,15.50
2018-11-03T20:48:37.533Z,15.97
2018-11-03T20:51:10.001Z,16.03
2018-11-03T20:53:39.606Z,16.87
2018-11-03T20:56:09.394Z,12.53
2018-11-03T20:58:38.438Z,12.20
2018-11-03T21:01:07.371Z,12.03
2018-11-03T21:03:36.364Z,13.13
2018-11-03T21:06:05.237Z,11.27
2018-11-03T21:08:34.062Z,12.07
2018-11-03T21:11:02.889Z,11.70
2018-11-03T21:13:31.768Z,10.75
2018-11-03T21:16:00.578Z,11.17
2018-11-03T21:18:29.495Z,11.95
2018-11-03T21:20:58.422Z,11.03
2018-11-03T21:23:27.405Z,9.63
2018-11-03T21:25:56.158Z,9.67
2018-11-03T21:28:25.048Z,10.20
2018-11-03T21:30:54.321Z,10.43
2018-11-03T21:33:23.252Z,9.83
2018-11-03T21:35:52.037Z,11.25
2018-11-03T21:38:21.020Z,10.95
2018-11-03T21:40:50.289Z,10.57
2018-11-03T21:43:19.109Z,11.15
2018-11-03T21:45:47.920Z,10.40
2018-11-03T21:48:16.845Z,9.80
2018-11-03T21:50:45.735Z,8.85
2018-11-03T21:53:14.590Z,11.10
2018-11-03T21:55:43.411Z,11.30
2018-11-03T21:58:12.254Z,9.33
2018-11-03T22:00:41.485Z,10.55
2018-11-03T22:03:14.265Z,9.88
2018-11-03T22:05:43.113Z,10.47
2018-11-03T22:08:12.008Z,11.08
2018-11-03T22:10:40.829Z,10.90
2018-11-03T22:13:09.774Z,11.23
2018-11-03T22:15:38.638Z,12.00
2018-11-03T22:18:07.406Z,10.97
2018-11-03T22:20:36.267Z,10.60
2018-11-03T22:23:05.506Z,10.98
2018-11-03T22:25:34.398Z,10.38
2018-11-03T22:28:03.352Z,10.90
2018-11-03T22:30:32.229Z,11.33
2018-11-03T22:33:01.060Z,11.25
2018-11-03T22:35:29.913Z,11.12
2018-11-03T22:37:58.916Z,10.90
2018-11-03T22:40:27.759Z,11.43
2018-11-03T22:42:56.609Z,10.53
2018-11-03T22:45:27.101Z,11.28
2018-11-03T22:47:56.017Z,12.60
2018-11-03T22:50:24.866Z,12.03
2018-11-03T22:52:53.751Z,12.23
2018-11-03T22:55:22.686Z,12.90
2018-11-03T22:57:51.586Z,13.32
2018-11-03T23:00:21.266Z,13.90
2018-11-03T23:02:50.131Z,13.40
2018-11-03T23:05:18.979Z,12.70
2018-11-03T23:07:47.938Z,14.18
2018-11-03T23:10:17.024Z,13.43
2018-11-03T23:12:45.896Z,13.57
2018-11-03T23:15:14.769Z,14.50
2018-11-03T23:17:43.582Z,14.03
2018-11-03T23:20:13.775Z,13.85
2018-11-03T23:22:42.700Z,13.57
2018-11-03T23:25:11.516Z,13.37
2018-11-03T23:27:40.494Z,14.03
2018-11-03T23:30:11.069Z,15.58
2018-11-03T23:32:39.880Z,14.00
2018-11-03T23:35:10.543Z,14.73
2018-11-03T23:37:39.399Z,14.87
2018-11-03T23:40:08.984Z,14.57
2018-11-03T23:42:37.791Z,15.37
2018-11-03T23:45:07.921Z,15.90
2018-11-03T23:47:39.602Z,15.70
2018-11-03T23:50:10.121Z,15.67
2018-11-03T23:52:43.393Z,15.80
2018-11-03T23:55:12.243Z,17.15
2018-11-03T23:57:41.102Z,15.93
